Chattanooga Lovell

Airport
ICAO code: 
KCHA
Summary
ICAO Region: 
NAM
Territory: 
Location: 
Chattanooga, Tennessee,
Coordinates: 
Aerial View: 
35° 2' 7.084" N, 85° 12' 13.667" W
Metar
Observation
KCHA 040653Z AUTO 00000KT 10SM CLR 07/06 A3007 RMK AO2 SLP180 T00720056
Station
Chattanooga, Lovell Field
Date/Time
2021-12-04 06:53:00
Wind direction
Wind speed
00 kts
Lowest cloud amount
n/a
Temperature
7.2°C
Dew point
5.6°C
Humidity
89%
Weather condition
n/a

Description

Airport serving Chattanooga, Tennessee, USA.

Climatology

Humid “subtropical” climate (Köppen climate classification Cfa) - characterized by hot, humid summers and cool winters. Significant amounts of precipitation occur in all seasons in most areas. Winter rainfall (and sometimes snowfall) is associated with large storms that the westerlies steer from west to east. Most summer rainfall occurs during thunderstorms and occasional tropical storms (hurricanes).

Runways

Designator Length Width Surface Rops
15/33 1524 46 ASP Yes/Yes
2/20 2256 46 ASP Yes/Yes
Airport map: 
Aerial View: 

SKYbrary Partners:

Safety knowledge contributed by: